Time;durP1;ratioP1;P1;durP2;ratioP2;P2;SDS_P1;SDS_P2;PMS_P1;PMS_P2;Temp;Humidity;BMP_temperature;BMP_pressure;BME280_temperature;BME280_humidity;BME280_pressure;Samples;Min_cycle;Max_cycle;Signal;HPM_P1;HPM_P2
2023/04/01 05:05:39;;;;;;;;;0.00;0.00;;;;;13.16;67.16;-19560.97;5011631;28;45277;-95
2023/04/01 05:08:06;;;;;;;;;0.00;0.00;;;;;12.86;66.40;-19553.03;5012076;28;46771;-95
2023/04/01 05:10:32;;;;;;;;;0.00;0.00;;;;;12.50;66.95;-19543.47;5011277;28;44733;-96
2023/04/01 05:12:58;;;;;;;;;0.00;0.00;;;;;12.50;66.59;-19543.59;5011982;28;45172;-95
2023/04/01 05:15:23;;;;;;;;;0.00;0.00;;;;;12.67;66.66;-19548.19;5011828;28;45544;-95
2023/04/01 05:17:49;;;;;;;;;0.00;0.00;;;;;13.21;66.50;-19562.31;5014039;28;45470;-95
2023/04/01 05:20:15;;;;;;;;;0.00;0.00;;;;;12.31;66.18;-19206.69;5020430;28;45199;-95
2023/04/01 05:22:42;;;;;;;;;0.00;0.00;;;;;12.01;66.04;-19199.03;5021894;28;44650;-95
2023/04/01 05:25:08;;;;;;;;;0.00;0.00;;;;;13.22;65.81;-19230.16;5016187;28;44865;-95
2023/04/01 05:27:34;;;;;;;;;0.67;0.00;;;;;12.31;65.80;-19206.81;5014849;28;45460;-96
2023/04/01 05:29:59;;;;;;;;;0.00;0.00;;;;;12.89;65.90;-19221.72;5013191;28;44794;-95
2023/04/01 05:32:25;;;;;;;;;0.00;0.00;;;;;13.34;65.80;-19233.31;5011227;28;44786;-95
2023/04/01 05:34:51;;;;;;;;;2.00;0.00;;;;;12.75;65.87;-18885.97;5009203;28;45344;-95
2023/04/01 05:37:17;;;;;;;;;0.00;0.00;;;;;12.26;65.62;-18873.69;5009998;28;45610;-95
2023/04/01 05:39:42;;;;;;;;;0.00;0.00;;;;;12.38;65.75;-18876.81;5012134;28;45197;-95
2023/04/01 05:42:08;;;;;;;;;0.00;0.00;;;;;12.35;65.67;-18875.91;5009037;28;45291;-93
2023/04/01 05:44:35;;;;;;;;;0.00;0.00;;;;;13.56;65.81;-18906.38;5009137;28;45190;-94
2023/04/01 05:47:02;;;;;;;;;0.00;0.00;;;;;13.09;65.52;-18894.75;5008024;28;45487;-96
2023/04/01 05:49:27;;;;;;;;;0.00;0.00;;;;;12.49;65.45;-18879.38;5027234;28;45463;-96
2023/04/01 05:51:53;;;;;;;;;0.00;0.00;;;;;12.49;65.66;-18547.44;5006607;28;45407;-95
2023/04/01 05:54:20;;;;;;;;;0.00;0.00;;;;;12.89;65.17;-18557.53;5005036;28;45409;-94
2023/04/01 05:56:45;;;;;;;;;0.00;0.00;;;;;12.60;65.26;-18550.34;5007585;28;46453;-96
2023/04/01 05:59:11;;;;;;;;;0.00;0.00;;;;;13.48;65.16;-18572.06;5022345;28;45477;-95
2023/04/01 06:01:36;;;;;;;;;0.00;0.00;;;;;12.54;65.15;-18548.69;5031927;28;46035;-95
2023/04/01 06:04:02;;;;;;;;;0.00;0.00;;;;;12.86;65.18;-18224.50;5008969;28;47009;-95
2023/04/01 06:06:29;;;;;;;;;0.00;0.00;;;;;13.13;64.80;-18231.03;5025193;28;46477;-94
2023/04/01 06:09:23;;;;;;;;;0.00;0.00;;;;;12.54;65.00;-18548.81;5023597;28;45284;-96
2023/04/01 06:11:59;;;;;;;;;0.00;0.00;;;;;13.90;64.96;-18249.56;5022455;28;45503;-94
2023/04/01 06:14:30;;;;;;;;;0.00;0.00;;;;;13.94;64.64;-18250.56;5031492;28;45407;-93
2023/04/01 06:17:15;;;;;;;;;0.00;0.00;;;;;13.95;64.82;-18250.81;5046940;28;45392;-95
2023/04/01 06:20:16;;;;;;;;;0.00;0.00;;;;;13.95;64.84;-18250.81;5029034;28;45373;-94
2023/04/01 06:23:03;;;;;;;;;0.00;0.00;;;;;13.95;64.47;-17918.03;5049920;28;45253;-95
2023/04/01 06:25:55;;;;;;;;;1.67;1.67;;;;;13.96;64.54;-17918.16;5036035;28;45349;-95
2023/04/01 06:28:43;;;;;;;;;0.00;0.00;;;;;12.92;64.42;-17893.63;5032814;28;45362;-96
2023/04/01 06:31:45;;;;;;;;;0.00;0.00;;;;;12.16;64.51;-17875.81;5038031;28;45405;-96
2023/04/01 06:34:23;;;;;;;;;0.00;0.00;;;;;13.55;64.25;-17908.59;5038760;28;44781;-95
2023/04/01 06:37:10;;;;;;;;;0.00;0.00;;;;;13.96;64.43;-17918.28;5038909;28;45283;-95
2023/04/01 06:40:12;;;;;;;;;0.00;0.00;;;;;13.96;64.11;-17585.34;5039862;28;45539;-94
2023/04/01 06:43:01;;;;;;;;;0.67;0.00;;;;;13.96;63.97;-17585.34;5040236;28;44725;-95
2023/04/01 06:45:40;;;;;;;;;0.00;0.00;;;;;13.97;64.02;-17585.69;5028949;28;45273;-96
2023/04/01 06:48:39;;;;;;;;;0.00;0.00;;;;;13.58;64.17;-17576.72;5022199;28;44866;-94
2023/04/01 06:51:33;;;;;;;;;0.00;0.00;;;;;13.99;64.23;-17586.16;5040077;28;45718;-96
2023/04/01 06:54:11;;;;;;;;;0.00;0.00;;;;;12.11;63.92;-17542.66;5042147;28;44678;-96
2023/04/01 06:56:41;;;;;;;;;0.00;0.00;;;;;12.60;63.84;-17554.03;5040807;28;45349;-96
2023/04/01 06:59:13;;;;;;;;;0.00;0.00;;;;;12.33;64.34;-17215.88;5040709;28;44913;-96
2023/04/01 07:01:45;;;;;;;;;0.00;0.00;;;;;12.42;63.77;-17217.84;5041213;28;45232;-96
2023/04/01 07:04:23;;;;;;;;;0.00;0.00;;;;;12.33;63.75;-17215.78;5036918;28;45493;-92
2023/04/01 07:06:57;;;;;;;;;0.33;0.00;;;;;14.09;63.57;-17255.59;5019391;28;45380;-93
2023/04/01 07:09:32;;;;;;;;;0.00;0.00;;;;;12.39;63.32;-17217.28;5024777;28;45402;-94
2023/04/01 07:12:06;;;;;;;;;0.00;0.00;;;;;13.89;63.18;-16918.25;5021034;28;46954;-93
2023/04/01 07:14:38;;;;;;;;;0.00;0.00;;;;;13.32;63.50;-16905.66;5021490;28;45374;-94
2023/04/01 07:17:27;;;;;;;;;0.00;0.00;;;;;13.58;63.05;-16911.28;5029013;28;45366;-96
2023/04/01 07:20:02;;;;;;;;;0.00;0.00;;;;;14.22;63.07;-16925.34;5024339;28;45270;-91
2023/04/01 07:22:40;;;;;;;;;0.00;0.00;;;;;14.23;63.11;-16925.69;4998532;28;48541;-94
2023/04/01 07:25:19;;;;;;;;;0.00;0.00;;;;;14.24;63.02;-16925.91;5007289;28;45380;-94
2023/04/01 07:27:46;;;;;;;;;0.00;0.00;;;;;14.25;62.87;-16926.16;5029429;28;45380;-95
2023/04/01 07:30:15;;;;;;;;;0.00;0.00;;;;;14.26;62.96;-16593.31;5031708;28;45292;-96
2023/04/01 07:32:59;;;;;;;;;0.00;0.00;;;;;14.27;62.99;-16593.53;5033532;28;45422;-96
2023/04/01 07:35:40;;;;;;;;;0.00;0.00;;;;;14.04;62.95;-16588.56;5041210;28;44576;-96
2023/04/01 07:38:30;;;;;;;;;0.00;0.00;;;;;14.32;62.52;-16261.38;5036626;28;45324;-93
2023/04/01 07:41:41;;;;;;;;;0.00;0.00;;;;;14.03;62.81;-16588.34;5027502;28;45297;-95
2023/04/01 07:44:33;;;;;;;;;0.00;0.00;;;;;14.41;62.77;-16596.38;5019569;28;46263;-95
2023/04/01 07:47:09;;;;;;;;;0.00;0.00;;;;;14.43;62.34;-16263.63;5018811;28;45505;-94
2023/04/01 07:49:37;;;;;;;;;0.00;0.00;;;;;14.46;62.25;-16264.38;5020115;28;45550;-95
2023/04/01 07:52:59;;;;;;;;;0.00;0.00;;;;;14.48;62.29;-16264.81;5022289;28;45470;-90
2023/04/01 07:55:52;;;;;;;;;1.00;0.00;;;;;14.53;62.30;-16265.88;4956162;28;46207;-85
2023/04/01 07:58:40;;;;;;;;;0.33;0.00;;;;;14.57;62.15;-16266.63;4916981;28;45533;-82
2023/04/01 08:01:24;;;;;;;;;0.00;0.00;;;;;14.60;62.07;-16267.28;4916224;28;45544;-81
2023/04/01 08:03:52;;;;;;;;;0.33;0.00;;;;;14.64;61.72;-16268.03;4914755;28;45691;-86
2023/04/01 08:06:36;;;;;;;;;0.00;0.00;;;;;14.65;62.16;-16268.34;4910921;28;46156;-84
2023/04/01 08:09:22;;;;;;;;;1.00;0.00;;;;;14.62;62.09;-16267.59;4917544;28;45430;-84
2023/04/01 08:12:26;;;;;;;;;0.00;0.00;;;;;14.71;61.85;-15936.16;4917057;28;45840;-88
2023/04/01 08:15:02;;;;;;;;;0.00;0.00;;;;;14.75;61.87;-15937.00;4824525;29;45587;-83
2023/04/01 08:17:56;;;;;;;;;0.00;0.00;;;;;14.77;61.88;-15937.53;4839735;29;46695;-87
2023/04/01 08:20:34;;;;;;;;;0.00;0.00;;;;;14.34;61.80;-15928.66;4835558;29;45621;-88
2023/04/01 08:23:25;;;;;;;;;0.00;0.00;;;;;14.81;61.51;-15938.25;4823546;29;45406;-88
2023/04/01 08:26:02;;;;;;;;;1.00;0.00;;;;;14.81;61.33;-15604.81;4834878;29;45580;-87
2023/04/01 08:28:39;;;;;;;;;0.00;0.00;;;;;14.79;61.16;-15604.41;4879558;29;47231;-85
2023/04/01 08:31:15;;;;;;;;;0.00;0.00;;;;;14.80;61.20;-15604.50;4879305;29;45588;-86
2023/04/01 08:33:44;;;;;;;;;1.00;0.00;;;;;14.79;60.96;-15270.94;4877889;29;45362;-83
2023/04/01 08:36:20;;;;;;;;;0.00;0.00;;;;;14.77;60.96;-14937.16;4915017;28;45493;-83
2023/04/01 08:38:57;;;;;;;;;0.00;0.00;;;;;14.66;61.15;-15268.47;4936557;28;46509;-85
2023/04/01 08:41:53;;;;;;;;;0.00;0.00;;;;;14.74;61.76;-15603.38;4927449;28;45576;-86
2023/04/01 08:44:45;;;;;;;;;0.00;0.00;;;;;14.73;62.35;-15936.69;4917426;28;45426;-86
2023/04/01 08:47:20;;;;;;;;;1.00;0.00;;;;;14.68;62.27;-15935.53;4930105;28;45532;-87
2023/04/01 08:50:05;;;;;;;;;0.00;0.00;;;;;14.71;62.13;-15936.28;4935687;28;46389;-85
2023/04/01 08:53:06;;;;;;;;;0.00;0.00;;;;;14.75;61.79;-15603.69;5001713;28;45574;-86
2023/04/01 08:55:40;;;;;;;;;0.67;0.00;;;;;14.82;61.76;-15604.91;5015481;28;45680;-84
2023/04/01 08:58:34;;;;;;;;;0.00;0.00;;;;;14.87;61.47;-15606.03;5016966;28;46095;-89
2023/04/01 09:01:26;;;;;;;;;0.00;0.00;;;;;14.95;60.53;-15274.00;5019578;28;46993;-89
2023/04/01 09:04:06;;;;;;;;;0.00;0.00;;;;;15.01;60.76;-15275.09;5013898;28;45640;-91
2023/04/01 09:06:50;;;;;;;;;0.00;0.00;;;;;15.08;60.75;-15276.56;5017176;28;45354;-86
2023/04/01 09:09:47;;;;;;;;;0.00;0.00;;;;;15.03;60.62;-15275.59;5016900;28;45360;-89
2023/04/01 09:12:32;;;;;;;;;0.33;0.00;;;;;15.25;60.79;-15279.72;4954966;28;47140;-92
2023/04/01 09:15:20;;;;;;;;;2.00;0.00;;;;;15.39;60.20;-15282.59;4960446;28;45385;-90
2023/04/01 09:18:23;;;;;;;;;0.00;0.00;;;;;15.45;60.14;-15283.69;4957758;28;45438;-91
2023/04/01 09:21:10;;;;;;;;;0.00;0.00;;;;;15.48;59.78;-14950.41;4958594;28;45552;-94
2023/04/01 09:27:26;;;;;;;;;1.00;0.00;;;;;15.54;59.55;-14617.53;4955837;28;45437;-93
2023/04/01 09:30:06;;;;;;;;;0.00;0.00;;;;;15.37;59.03;-13946.72;4949208;28;45627;-89
2023/04/01 09:32:37;;;;;;;;;0.00;0.00;;;;;15.56;58.72;-13615.97;4954843;28;45519;-89
2023/04/01 09:35:23;;;;;;;;;0.00;0.00;;;;;15.54;59.03;-13615.69;4953897;28;45721;-89
2023/04/01 09:38:17;;;;;;;;;0.00;0.00;;;;;15.43;58.56;-13279.84;4955447;28;45501;-92
2023/04/01 09:41:01;;;;;;;;;7.67;7.67;;;;;15.53;59.09;-13615.53;4949532;28;46062;-89
2023/04/01 09:43:47;;;;;;;;;1.00;1.00;;;;;15.54;58.39;-13281.66;4953669;28;45566;-91
2023/04/01 09:46:37;;;;;;;;;5.00;4.00;;;;;15.51;59.08;-13281.09;4957956;28;46312;-89
2023/04/01 09:49:14;;;;;;;;;3.33;0.33;;;;;15.63;58.51;-13283.16;4968378;23;45951;-90
2023/04/01 09:52:00;;;;;;;;;0.00;0.00;;;;;15.66;57.52;-12615.19;4981098;28;45397;-90
2023/04/01 09:54:41;;;;;;;;;1.00;0.00;;;;;15.69;57.99;-12615.72;4977789;28;45483;-90
2023/04/01 09:57:19;;;;;;;;;0.00;0.00;;;;;15.71;58.08;-12616.03;4974875;28;47059;-91
2023/04/01 09:59:55;;;;;;;;;0.00;0.00;;;;;15.58;58.55;-12948.22;4956491;28;46033;-90
2023/04/01 10:02:46;;;;;;;;;0.00;0.00;;;;;15.78;57.61;-12282.84;4979319;28;45372;-89
2023/04/01 10:05:30;;;;;;;;;0.00;0.00;;;;;15.81;57.86;-12283.22;4976304;28;45294;-90
2023/04/01 10:08:14;;;;;;;;;0.00;0.00;;;;;15.83;57.51;-11949.22;4978308;28;47248;-91
2023/04/01 10:11:38;;;;;;;;;0.00;0.00;;;;;15.63;57.45;-11946.50;4980099;28;45491;-89
2023/04/01 10:14:34;;;;;;;;;1.00;0.00;;;;;15.91;57.04;-11615.91;4910623;28;45529;-96
2023/04/01 10:17:25;;;;;;;;;0.33;0.00;;;;;15.94;56.67;-10613.03;4909860;28;45465;-95
2023/04/01 10:20:28;;;;;;;;;0.00;0.00;;;;;16.02;57.11;-10948.47;4991847;23;47319;-87
2023/04/01 10:23:09;;;;;;;;;0.00;0.00;;;;;16.12;56.36;-10615.06;4977349;28;45477;-87
2023/04/01 10:25:55;;;;;;;;;0.00;0.00;;;;;16.21;56.50;-10616.16;4977790;28;45408;-88
2023/04/01 10:28:48;;;;;;;;;0.67;0.00;;;;;15.94;54.68;-9274.78;4980389;28;45432;-90
2023/04/01 10:31:42;;;;;;;;;0.00;0.00;;;;;16.69;55.75;-11626.41;4981579;28;46029;-90
2023/04/01 10:34:26;;;;;;;;;0.00;0.00;;;;;18.10;54.84;-12987.28;4982589;28;45435;-90
2023/04/01 10:37:08;;;;;;;;;0.00;0.00;;;;;19.00;52.64;-11321.06;4980189;28;45462;-89
2023/04/01 10:39:52;;;;;;;;;0.00;0.00;;;;;19.69;50.33;-9310.69;4979595;28;45313;-86
2023/04/01 10:42:45;;;;;;;;;1.00;0.00;;;;;19.97;50.45;-7629.19;4979998;28;47404;-89
2023/04/01 10:45:30;;;;;;;;;0.00;0.00;;;;;20.12;51.32;-8304.16;4981008;28;45375;-87
2023/04/01 10:48:13;;;;;;;;;0.00;0.00;;;;;20.03;49.41;-3921.34;4979608;28;45385;-93
2023/04/01 10:51:01;;;;;;;;;0.00;0.00;;;;;19.94;48.52;465.16;4979595;28;45384;-91
2023/04/01 10:53:54;;;;;;;;;0.00;0.00;;;;;19.72;47.84;3840.28;4973864;28;45636;-89
2023/04/01 10:56:40;;;;;;;;;0.00;0.00;;;;;19.17;47.88;5859.53;4976574;28;46934;-91
2023/04/01 10:59:43;;;;;;;;;0.00;0.00;;;;;19.32;49.31;4848.50;4979533;28;46590;-85
2023/04/01 11:02:48;;;;;;;;;0.00;0.00;;;;;19.00;49.04;4506.91;4970685;28;45478;-92
2023/04/01 11:09:13;;;;;;;;;0.00;0.00;;;;;19.19;48.62;7886.44;4974600;28;45465;-90
2023/04/01 11:11:57;;;;;;;;;0.00;0.00;;;;;19.14;48.55;8223.38;4963404;28;45381;-85
2023/04/01 11:14:31;;;;;;;;;0.00;0.00;;;;;19.08;47.40;11940.16;4978539;28;45512;-87
2023/04/01 11:17:41;;;;;;;;;0.00;0.00;;;;;19.09;46.04;15323.44;4971819;28;45655;-84
2023/04/01 11:20:38;;;;;;;;;1.00;0.00;;;;;19.17;45.33;17696.09;4915214;28;45507;-84
2023/04/01 11:23:27;;;;;;;;;0.00;0.00;;;;;19.32;46.17;16684.69;4891342;29;45544;-88
2023/04/01 11:26:28;;;;;;;;;;;;;;;;;;;;;
2023/04/01 11:29:31;;;;;;;;;0.00;0.00;;;;;19.24;45.57;20070.03;4820995;29;75409;-89
2023/04/01 11:32:25;;;;;;;;;0.00;0.00;;;;;19.07;45.68;21419.56;4843496;29;45471;-88
2023/04/01 11:35:06;;;;;;;;;0.00;0.00;;;;;19.18;46.47;21084.81;4828753;29;45399;-87
2023/04/01 11:37:49;;;;;;;;;0.00;0.00;;;;;19.15;46.56;21422.81;4842289;29;45317;-84
2023/04/01 11:40:31;;;;;;;;;0.00;0.00;;;;;19.13;47.35;19727.16;4842349;29;45544;-84
2023/04/01 11:43:21;;;;;;;;;0.00;0.00;;;;;19.19;46.11;21085.41;4838587;29;45581;-89
2023/04/01 11:45:58;;;;;;;;;0.00;0.00;;;;;19.00;46.59;21077.63;4842246;29;45428;-81
2023/04/01 11:48:50;;;;;;;;;0.00;0.00;;;;;19.02;46.67;22095.50;4842176;29;45578;-86
2023/04/01 11:51:39;;;;;;;;;0.00;0.00;;;;;18.62;46.31;24112.53;4842147;29;45932;-86
2023/04/01 11:54:32;;;;;;;;;0.00;0.00;;;;;18.71;46.65;24794.66;4847025;29;45404;-89
2023/04/01 11:57:06;;;;;;;;;0.00;0.00;;;;;18.61;46.94;26146.34;4860971;29;45428;-94
2023/04/01 11:59:31;;;;;;;;;0.33;0.00;;;;;18.64;47.06;25130.47;4905181;28;45587;-85
2023/04/01 12:02:35;;;;;;;;;0.00;0.00;;;;;18.90;46.42;23785.56;4913448;28;45383;-83
2023/04/01 12:05:17;;;;;;;;;0.00;0.00;;;;;19.16;45.90;24475.38;4975216;28;45504;-80
2023/04/01 12:08:04;;;;;;;;;0.00;0.00;;;;;19.48;44.79;26866.66;4971082;28;45560;-80
2023/04/01 12:10:51;;;;;;;;;0.00;0.00;;;;;19.76;45.16;25860.94;4976626;28;45491;-81
2023/04/01 12:13:34;;;;;;;;;0.00;0.00;;;;;19.91;44.98;25867.88;4976314;28;46362;-82
2023/04/01 12:16:24;;;;;;;;;0.00;0.00;;;;;20.02;45.41;25873.13;4977789;28;45396;-85
2023/04/01 12:19:11;;;;;;;;;0.00;0.00;;;;;20.04;45.17;26213.72;4970568;28;45532;-85
2023/04/01 12:21:47;;;;;;;;;0.00;0.00;;;;;20.14;44.48;29975.97;4978837;28;45448;-90
2023/04/01 12:24:34;;;;;;;;;0.00;0.00;;;;;20.21;44.27;30607.31;4963798;28;48328;-89
2023/04/01 12:27:41;;;;;;;;;0.00;0.00;;;;;19.89;44.05;31288.66;4974500;28;45526;-89
2023/04/01 12:30:22;;;;;;;;;0.00;0.00;;;;;20.15;44.52;32625.09;4969726;28;45545;-83
2023/04/01 12:33:24;;;;;;;;;0.00;0.00;;;;;20.38;43.92;33623.47;4974093;28;45506;-85
2023/04/01 12:36:14;;;;;;;;;0.00;0.00;;;;;20.31;42.85;41641.59;4973584;28;45688;-88
2023/04/01 12:38:43;;;;;;;;;0.00;0.00;;;;;20.19;42.73;42673.63;4975131;28;45452;-88
2023/04/01 12:41:42;;;;;;;;;0.00;0.00;;;;;19.98;42.60;45128.09;4972513;28;45503;-86
2023/04/01 12:44:23;;;;;;;;;0.00;0.00;;;;;19.90;43.17;45172.03;4974850;28;45622;-88
2023/04/01 12:47:11;;;;;;;;;0.00;0.00;;;;;19.96;43.57;44387.13;4971083;28;46161;-87
2023/04/01 12:49:58;;;;;;;;;0.00;0.00;;;;;20.33;41.84;46834.69;4969182;28;45532;-88
2023/04/01 12:53:03;;;;;;;;;0.00;0.00;;;;;20.06;41.80;47696.22;4978422;28;45510;-90
2023/04/01 12:55:49;;;;;;;;;0.00;0.00;;;;;19.53;42.19;49193.25;4916938;28;45602;-91
2023/04/01 12:58:42;;;;;;;;;0.00;0.00;;;;;20.22;41.10;50916.00;4925435;28;47864;-91
2023/04/01 13:01:35;;;;;;;;;1.00;0.00;;;;;20.10;42.10;50990.84;4934994;28;45682;-89
2023/04/01 13:04:27;;;;;;;;;0.00;0.00;;;;;20.01;42.59;50742.78;4928927;28;45569;-90
2023/04/01 13:06:53;;;;;;;;;0.00;0.00;;;;;20.01;43.19;49989.75;4918537;28;45751;-85
2023/04/01 13:09:40;;;;;;;;;0.00;0.00;;;;;20.00;43.75;49321.06;4916022;28;45481;-91
2023/04/01 13:12:47;;;;;;;;;0.00;0.00;;;;;20.00;43.30;50226.66;4937320;28;45596;-91
2023/04/01 13:15:46;;;;;;;;;0.00;0.00;;;;;19.95;42.06;51541.75;4935511;28;45525;-90
2023/04/01 13:18:33;;;;;;;;;0.00;0.00;;;;;19.86;43.21;50940.53;4899120;28;45543;-87
2023/04/01 13:21:18;;;;;;;;;0.00;0.00;;;;;18.86;43.77;50374.06;4912080;28;46310;-88
2023/04/01 13:24:19;;;;;;;;;0.00;0.00;;;;;20.00;43.67;50384.31;4899343;28;45577;-86
2023/04/01 13:27:05;;;;;;;;;0.00;0.00;;;;;20.35;42.92;49184.75;4865140;29;45473;-85
2023/04/01 13:29:43;;;;;;;;;0.00;0.00;;;;;20.42;43.28;49049.13;4874077;29;45464;-83
2023/04/01 13:32:21;;;;;;;;;0.00;0.00;;;;;20.56;42.52;49242.09;4873209;29;45535;-88
2023/04/01 13:34:52;;;;;;;;;0.00;0.00;;;;;20.49;42.69;49789.41;4898585;29;45503;-88
2023/04/01 13:37:42;;;;;;;;;0.00;0.00;;;;;20.39;41.82;51506.06;4898666;29;45449;-82
2023/04/01 13:40:45;;;;;;;;;0.00;0.00;;;;;20.26;41.50;52510.47;4882941;29;45536;-84
2023/04/01 13:43:20;;;;;;;;;0.00;0.00;;;;;20.18;42.92;52185.41;4891332;28;46399;-87
2023/04/01 13:46:00;;;;;;;;;0.00;0.00;;;;;20.13;43.27;51584.25;4896962;29;45531;-85
2023/04/01 13:48:44;;;;;;;;;0.00;0.00;;;;;20.13;42.65;52009.75;4897296;29;45478;-82
2023/04/01 13:51:14;;;;;;;;;1.00;0.00;;;;;20.14;43.13;51398.47;4887273;28;45921;-84
2023/04/01 13:53:54;;;;;;;;;0.00;0.00;;;;;20.26;43.38;50681.22;4889976;29;45542;-84
2023/04/01 13:56:33;;;;;;;;;0.00;0.00;;;;;20.14;42.81;51200.22;4896287;29;45487;-84
2023/04/01 13:59:24;;;;;;;;;0.00;0.00;;;;;20.23;42.95;50788.59;4878208;29;45662;-83
2023/04/01 14:02:12;;;;;;;;;0.00;0.00;;;;;20.38;42.44;51743.16;4969865;28;45448;-84
2023/04/01 14:04:53;;;;;;;;;0.00;0.00;;;;;20.39;43.19;50853.16;4936108;28;46331;-83
2023/04/01 14:07:23;;;;;;;;;0.00;0.00;;;;;20.29;43.25;51387.44;4946426;28;45481;-83
2023/04/01 14:10:26;;;;;;;;;0.00;0.00;;;;;20.31;43.18;51859.84;4937371;28;45458;-84
2023/04/01 14:13:07;;;;;;;;;0.00;0.00;;;;;20.20;42.90;52101.66;4859253;29;45570;-83
2023/04/01 14:15:45;;;;;;;;;0.00;0.00;;;;;20.16;43.32;52415.75;4854126;29;45584;-83
2023/04/01 14:18:27;;;;;;;;;0.00;0.00;;;;;19.85;43.44;52807.44;4851073;29;45576;-84
2023/04/01 14:21:21;;;;;;;;;0.00;0.00;;;;;19.95;42.15;53857.16;4851878;29;46262;-83
2023/04/01 14:23:56;;;;;;;;;1.00;0.00;;;;;19.64;42.30;54379.09;4860601;29;45551;-84
2023/04/01 14:26:45;;;;;;;;;0.00;0.00;;;;;19.73;43.14;54558.25;4852873;29;47198;-83
2023/04/01 14:29:35;;;;;;;;;0.00;0.00;;;;;19.63;43.05;54629.41;4860054;29;45554;-83
2023/04/01 14:32:14;;;;;;;;;0.00;0.00;;;;;19.51;42.92;55545.94;4857311;29;45557;-83
2023/04/01 14:34:58;;;;;;;;;0.00;0.00;;;;;19.45;43.23;55417.19;4843038;29;45632;-83
2023/04/01 14:37:42;;;;;;;;;0.00;0.00;;;;;19.41;43.43;54918.94;4849804;29;47539;-82
2023/04/01 14:40:29;;;;;;;;;;;;;;;;;;;;;
2023/04/01 14:49:42;;;;;;;;;0.00;0.00;;;;;19.18;45.38;52748.00;4976178;22;45819;-83
2023/04/01 14:52:21;;;;;;;;;0.00;0.00;;;;;18.82;45.40;52237.72;4991481;28;45493;-83
2023/04/01 14:54:49;;;;;;;;;0.00;0.00;;;;;18.31;45.54;51901.97;4987238;28;45548;-83
2023/04/01 14:57:26;;;;;;;;;0.00;0.00;;;;;19.00;46.25;51727.97;4979700;28;45385;-83
2023/04/01 15:00:00;;;;;;;;;9.67;8.67;;;;;18.92;46.15;51339.22;4996920;28;47097;-83
2023/04/01 15:02:37;;;;;;;;;10.00;8.67;;;;;18.81;46.32;51041.28;4997277;28;45670;-83
2023/04/01 15:05:15;;;;;;;;;0.00;0.00;;;;;18.64;46.48;50653.25;4991736;28;46155;-84
2023/04/01 15:07:59;;;;;;;;;0.00;0.00;;;;;18.81;46.51;50513.22;4988555;28;45521;-84
2023/04/01 15:10:37;;;;;;;;;0.00;0.00;;;;;17.80;47.04;50157.25;4998792;28;45535;-83
2023/04/01 15:13:29;;;;;;;;;0.00;0.00;;;;;18.76;47.03;49437.84;4996628;28;45443;-83
2023/04/01 15:16:07;;;;;;;;;0.00;0.00;;;;;18.52;47.71;48764.22;4998124;28;45456;-85
2023/04/01 15:18:41;;;;;;;;;0.00;0.00;;;;;18.46;47.50;47954.59;4992546;28;45574;-85
2023/04/01 15:21:35;;;;;;;;;0.00;0.00;;;;;17.78;48.09;47031.31;4991931;28;46206;-85
2023/04/01 15:24:15;;;;;;;;;0.67;0.00;;;;;18.25;48.35;45640.09;4995849;28;45514;-85
2023/04/01 15:26:57;;;;;;;;;0.00;0.00;;;;;17.95;50.34;37278.97;4997226;28;45606;-86
2023/04/01 15:29:34;;;;;;;;;0.00;0.00;;;;;18.40;50.78;32158.69;4991269;28;45493;-83
2023/04/01 15:32:29;;;;;;;;;0.00;0.00;;;;;17.99;51.18;28616.34;4981189;28;46156;-85
2023/04/01 15:35:22;;;;;;;;;0.00;0.00;;;;;18.31;52.20;22066.81;4918945;28;45605;-85
2023/04/01 15:38:02;;;;;;;;;0.00;0.00;;;;;17.18;52.65;19655.44;4929781;28;45628;-85
2023/04/01 15:40:51;;;;;;;;;0.00;0.00;;;;;17.49;53.05;18653.31;4979102;28;45617;-85
2023/04/01 15:43:38;;;;;;;;;0.00;0.00;;;;;18.17;53.04;17662.44;4993246;28;46154;-84
2023/04/01 15:46:17;;;;;;;;;0.00;0.00;;;;;18.09;52.71;16983.53;4978425;28;45319;-83
2023/04/01 15:49:09;;;;;;;;;0.00;0.00;;;;;16.76;54.05;11883.69;4988351;28;45535;-87
2023/04/01 15:52:07;;;;;;;;;0.00;0.00;;;;;17.12;55.76;7176.00;4992827;28;45428;-83
2023/04/01 15:54:55;;;;;;;;;0.00;0.00;;;;;17.81;55.77;4492.06;4965872;28;46214;-85
2023/04/01 15:58:02;;;;;;;;;0.00;0.00;;;;;17.70;56.65;1124.63;4970369;28;45494;-85
2023/04/01 16:00:34;;;;;;;;;0.00;0.00;;;;;17.56;56.76;-221.69;4963700;28;45357;-83
2023/04/01 16:03:56;;;;;;;;;0.33;0.00;;;;;17.34;56.66;-222.78;4972804;28;45581;-84
2023/04/01 16:09:27;;;;;;;;;0.00;0.00;;;;;16.78;57.15;-561.31;5282297;22;45468;-88
2023/04/01 16:12:17;;;;;;;;;0.00;0.00;;;;;17.29;57.15;-895.22;5013172;28;45336;-83
2023/04/01 16:15:16;;;;;;;;;1.00;0.00;;;;;17.24;57.42;-1567.44;4996429;28;45500;-86
2023/04/01 16:17:51;;;;;;;;;0.00;0.00;;;;;17.20;56.97;-895.53;4999181;28;46256;-94
2023/04/01 16:20:26;;;;;;;;;0.00;0.00;;;;;17.18;56.91;-1231.63;4975480;28;45835;-86
2023/04/01 16:23:16;;;;;;;;;1.00;1.00;;;;;17.16;57.63;-1903.56;5006024;28;45532;-83
2023/04/01 16:26:03;;;;;;;;;0.00;0.00;;;;;17.13;57.33;-1231.78;5005423;28;45505;-84
2023/04/01 16:28:36;;;;;;;;;0.00;0.00;;;;;17.10;56.68;-1567.78;4995142;28;46128;-91
2023/04/01 16:31:31;;;;;;;;;0.00;0.00;;;;;16.92;57.33;-1232.47;5007352;28;45762;-84
2023/04/01 16:34:09;;;;;;;;;0.00;0.00;;;;;17.04;56.95;-896.13;4998681;28;45771;-84
2023/04/01 16:36:44;;;;;;;;;0.00;0.00;;;;;17.01;56.73;-560.31;5000553;28;45297;-87
2023/04/01 16:39:30;;;;;;;;;0.00;0.00;;;;;16.98;57.04;-560.47;5001120;28;45810;-83
2023/04/01 16:42:14;;;;;;;;;0.00;0.00;;;;;16.96;56.73;-224.59;5013391;28;45317;-84
2023/04/01 16:45:15;;;;;;;;;1.00;0.00;;;;;16.93;56.74;111.22;4992047;28;45322;-84
2023/04/01 16:47:46;;;;;;;;;0.00;0.00;;;;;16.91;56.43;447.06;4991357;28;46820;-85
2023/04/01 16:50:23;;;;;;;;;0.00;0.00;;;;;16.87;56.86;110.91;4990062;28;46080;-80
2023/04/01 16:53:08;;;;;;;;;0.00;0.00;;;;;16.86;56.38;446.75;4989152;28;46006;-82
2023/04/01 16:55:46;;;;;;;;;0.00;0.00;;;;;16.84;56.16;1118.63;4996410;28;45424;-81
2023/04/01 16:58:21;;;;;;;;;0.00;0.00;;;;;16.83;56.23;1118.53;4996873;28;45630;-82
2023/04/01 17:00:54;;;;;;;;;0.00;0.00;;;;;16.77;56.09;1454.06;5008690;28;45495;-82
2023/04/01 17:03:28;;;;;;;;;0.00;0.00;;;;;16.79;55.92;1790.28;5008497;28;45452;-83
2023/04/01 17:05:56;;;;;;;;;0.00;0.00;;;;;16.78;56.08;2126.19;5000053;28;45484;-82
2023/04/01 17:09:04;;;;;;;;;0.00;0.00;;;;;16.70;56.20;1789.50;5011729;28;45479;-80
2023/04/01 17:11:39;;;;;;;;;0.00;0.00;;;;;16.71;56.65;1117.69;4976552;28;46407;-80
2023/04/01 17:14:34;;;;;;;;;0.00;0.00;;;;;16.67;57.17;-225.97;4975176;28;46675;-84
2023/04/01 17:17:19;;;;;;;;;0.00;0.00;;;;;16.63;59.09;-5259.50;4962952;28;45476;-82
2023/04/01 17:19:58;;;;;;;;;0.00;0.00;;;;;16.57;58.68;-4924.00;4976596;28;45606;-88
2023/04/01 17:22:58;;;;;;;;;0.00;0.00;;;;;16.39;60.10;-6934.44;4974545;28;46496;-86
2023/04/01 17:26:02;;;;;;;;;0.00;0.00;;;;;16.19;60.71;-8607.66;4918743;28;45537;-88
2023/04/01 17:28:51;;;;;;;;;0.00;0.00;;;;;16.41;60.60;-8609.53;4903635;28;47128;-91
2023/04/01 17:31:40;;;;;;;;;0.33;0.00;;;;;16.07;60.47;-8606.59;4923897;28;45532;-94
2023/04/01 17:34:16;;;;;;;;;0.00;0.00;;;;;16.32;61.25;-10282.78;4922204;28;45739;-89
2023/04/01 17:37:09;;;;;;;;;0.00;0.00;;;;;15.54;60.27;-9270.94;4919640;28;45762;-88
2023/04/01 17:40:04;;;;;;;;;0.00;0.00;;;;;15.73;60.86;-10276.16;4917368;28;45927;-94
2023/04/01 17:42:48;;;;;;;;;0.00;0.00;;;;;15.91;61.68;-11281.50;4916518;28;45732;-86
2023/04/01 17:45:35;;;;;;;;;0.00;0.00;;;;;16.20;61.44;-11619.81;4926012;28;46327;-90
2023/04/01 17:48:38;;;;;;;;;0.00;0.00;;;;;16.17;61.97;-12288.41;4919338;28;45439;-87
2023/04/01 17:51:41;;;;;;;;;0.00;0.00;;;;;16.13;61.67;-12287.91;4993988;23;45561;-84
2023/04/01 17:54:26;;;;;;;;;0.00;0.00;;;;;15.82;62.13;-12951.91;5009939;28;45510;-84
2023/04/01 17:57:28;;;;;;;;;0.00;0.00;;;;;16.09;62.42;-13290.38;5009631;28;46433;-85
2023/04/01 18:00:16;;;;;;;;;0.00;0.00;;;;;16.05;62.48;-13289.81;5005222;28;45475;-85
2023/04/01 18:02:54;;;;;;;;;2.00;0.00;;;;;16.02;63.32;-14292.09;5010402;28;45528;-84
2023/04/01 18:05:20;;;;;;;;;0.67;0.67;;;;;15.99;63.61;-14959.91;5010697;28;45616;-85
2023/04/01 18:08:05;;;;;;;;;1.00;1.00;;;;;15.25;62.90;-14278.44;5008075;28;46395;-84
2023/04/01 18:11:08;;;;;;;;;1.00;1.00;;;;;15.65;62.87;-14619.59;5006030;28;45514;-84
2023/04/01 18:14:03;;;;;;;;;0.00;0.00;;;;;14.95;62.71;-14606.81;5012078;28;45586;-92